sensor_id;sensor_type;location;lat;lon;timestamp;pressure;altitude;pressure_sealevel;temperature;humidity
55077;BME280;40971;44.702;11.030;2023-08-17T00:09:47;101407.28;;;21.61;85.25
55077;BME280;40971;44.702;11.030;2023-08-17T00:19:50;101403.50;;;21.68;84.90
55077;BME280;40971;44.702;11.030;2023-08-17T00:29:54;101395.66;;;21.67;85.25
55077;BME280;40971;44.702;11.030;2023-08-17T00:39:56;101401.47;;;21.08;86.42
55077;BME280;40971;44.702;11.030;2023-08-17T00:49:59;101415.00;;;21.06;89.64
55077;BME280;40971;44.702;11.030;2023-08-17T01:00:01;101424.28;;;21.10;89.66
55077;BME280;40971;44.702;11.030;2023-08-17T01:10:06;101426.34;;;21.39;87.26
55077;BME280;40971;44.702;11.030;2023-08-17T01:20:10;101430.66;;;21.03;87.42
55077;BME280;40971;44.702;11.030;2023-08-17T01:30:16;101417.03;;;21.17;86.77
55077;BME280;40971;44.702;11.030;2023-08-17T01:40:20;101419.13;;;21.15;85.45
55077;BME280;40971;44.702;11.030;2023-08-17T01:50:22;101432.81;;;20.81;87.28
55077;BME280;40971;44.702;11.030;2023-08-17T02:00:24;101449.34;;;20.71;88.20
55077;BME280;40971;44.702;11.030;2023-08-17T02:10:26;101454.28;;;20.61;87.51
55077;BME280;40971;44.702;11.030;2023-08-17T02:20:27;101438.47;;;20.60;87.17
55077;BME280;40971;44.702;11.030;2023-08-17T02:30:29;101429.28;;;20.43;88.15
55077;BME280;40971;44.702;11.030;2023-08-17T02:40:33;101443.66;;;20.22;88.20
55077;BME280;40971;44.702;11.030;2023-08-17T02:50:37;101432.56;;;20.18;89.84
55077;BME280;40971;44.702;11.030;2023-08-17T03:00:38;101433.66;;;20.04;89.25
55077;BME280;40971;44.702;11.030;2023-08-17T03:10:39;101428.47;;;20.16;89.10
55077;BME280;40971;44.702;11.030;2023-08-17T03:20:42;101420.69;;;20.08;89.83
55077;BME280;40971;44.702;11.030;2023-08-17T03:30:45;101416.56;;;20.18;89.39
55077;BME280;40971;44.702;11.030;2023-08-17T03:40:47;101437.91;;;20.45;89.34
55077;BME280;40971;44.702;11.030;2023-08-17T03:50:53;101449.34;;;20.71;88.64
55077;BME280;40971;44.702;11.030;2023-08-17T04:00:56;101442.56;;;20.62;88.45
55077;BME280;40971;44.702;11.030;2023-08-17T04:10:58;101451.47;;;20.43;87.96
55077;BME280;40971;44.702;11.030;2023-08-17T04:20:59;101437.53;;;20.35;88.57
55077;BME280;40971;44.702;11.030;2023-08-17T04:31:02;101435.81;;;20.53;88.75
55077;BME280;40971;44.702;11.030;2023-08-17T04:41:04;101428.69;;;20.41;88.61
55077;BME280;40971;44.702;11.030;2023-08-17T04:51:07;101446.00;;;20.76;88.77
55077;BME280;40971;44.702;11.030;2023-08-17T05:01:09;101449.34;;;21.16;87.74
55077;BME280;40971;44.702;11.030;2023-08-17T05:11:12;101447.91;;;21.44;86.74
55077;BME280;40971;44.702;11.030;2023-08-17T05:21:18;101454.81;;;21.90;86.70
55077;BME280;40971;44.702;11.030;2023-08-17T05:31:20;101460.22;;;22.26;86.70
55077;BME280;40971;44.702;11.030;2023-08-17T05:41:23;101468.78;;;22.53;86.37
55077;BME280;40971;44.702;11.030;2023-08-17T05:51:26;101458.91;;;22.90;84.98
55077;BME280;40971;44.702;11.030;2023-08-17T06:01:27;101450.09;;;23.31;83.40
55077;BME280;40971;44.702;11.030;2023-08-17T06:11:30;101465.72;;;23.63;80.83
55077;BME280;40971;44.702;11.030;2023-08-17T06:21:32;101466.56;;;23.99;75.40
55077;BME280;40971;44.702;11.030;2023-08-17T06:31:35;101474.44;;;24.35;73.47
55077;BME280;40971;44.702;11.030;2023-08-17T06:41:37;101475.91;;;24.66;72.98
55077;BME280;40971;44.702;11.030;2023-08-17T06:51:39;101482.56;;;25.15;72.10
55077;BME280;40971;44.702;11.030;2023-08-17T07:01:41;101487.41;;;25.74;67.93
55077;BME280;40971;44.702;11.030;2023-08-17T07:11:43;101481.09;;;26.74;63.57
55077;BME280;40971;44.702;11.030;2023-08-17T07:21:44;101493.59;;;27.50;60.75
55077;BME280;40971;44.702;11.030;2023-08-17T07:31:47;101492.16;;;27.74;59.60
55077;BME280;40971;44.702;11.030;2023-08-17T07:41:49;101499.16;;;28.44;58.49
55077;BME280;40971;44.702;11.030;2023-08-17T07:51:50;101480.56;;;29.24;54.86
55077;BME280;40971;44.702;11.030;2023-08-17T08:01:52;101488.22;;;29.83;53.45
55077;BME280;40971;44.702;11.030;2023-08-17T08:11:56;101493.06;;;30.26;51.90
55077;BME280;40971;44.702;11.030;2023-08-17T08:21:58;101483.72;;;30.68;50.74
55077;BME280;40971;44.702;11.030;2023-08-17T08:32:01;101480.22;;;31.89;47.92
55077;BME280;40971;44.702;11.030;2023-08-17T08:42:03;101479.19;;;32.37;46.58
55077;BME280;40971;44.702;11.030;2023-08-17T08:52:07;101481.53;;;32.49;46.50
55077;BME280;40971;44.702;11.030;2023-08-17T09:02:08;101481.41;;;31.78;45.43
55077;BME280;40971;44.702;11.030;2023-08-17T09:12:09;101478.53;;;32.93;42.86
55077;BME280;40971;44.702;11.030;2023-08-17T09:22:11;101475.97;;;33.57;41.93
55077;BME280;40971;44.702;11.030;2023-08-17T09:32:16;101455.72;;;33.07;44.04
55077;BME280;40971;44.702;11.030;2023-08-17T09:42:20;101458.19;;;34.06;43.30
55077;BME280;40971;44.702;11.030;2023-08-17T09:52:24;101441.94;;;34.28;41.35
55077;BME280;40971;44.702;11.030;2023-08-17T10:02:26;101444.13;;;33.34;41.34
55077;BME280;40971;44.702;11.030;2023-08-17T10:12:36;101427.75;;;34.53;39.08
55077;BME280;40971;44.702;11.030;2023-08-17T10:22:54;101411.03;;;33.40;42.58
55077;BME280;40971;44.702;11.030;2023-08-17T10:32:59;101415.78;;;34.76;41.38
55077;BME280;40971;44.702;11.030;2023-08-17T10:43:03;101424.38;;;34.83;38.06
55077;BME280;40971;44.702;11.030;2023-08-17T10:53:09;101409.44;;;34.67;36.45
55077;BME280;40971;44.702;11.030;2023-08-17T11:03:20;101407.78;;;35.16;36.38
55077;BME280;40971;44.702;11.030;2023-08-17T11:13:26;101388.03;;;34.83;37.31
55077;BME280;40971;44.702;11.030;2023-08-17T11:23:30;101370.84;;;34.33;39.80
55077;BME280;40971;44.702;11.030;2023-08-17T11:33:33;101360.66;;;34.11;38.35
55077;BME280;40971;44.702;11.030;2023-08-17T11:43:36;101345.03;;;34.39;37.38
55077;BME280;40971;44.702;11.030;2023-08-17T11:53:39;101357.59;;;34.26;36.18
55077;BME280;40971;44.702;11.030;2023-08-17T12:03:40;101351.53;;;34.16;38.41
55077;BME280;40971;44.702;11.030;2023-08-17T12:13:48;101339.63;;;34.25;39.35
55077;BME280;40971;44.702;11.030;2023-08-17T12:23:52;101318.78;;;34.65;40.55
55077;BME280;40971;44.702;11.030;2023-08-17T12:33:54;101330.09;;;33.82;41.62
55077;BME280;40971;44.702;11.030;2023-08-17T12:43:57;101308.63;;;33.48;43.92
55077;BME280;40971;44.702;11.030;2023-08-17T12:54:01;101298.31;;;33.31;40.39
55077;BME280;40971;44.702;11.030;2023-08-17T13:04:05;101285.66;;;33.68;39.67
55077;BME280;40971;44.702;11.030;2023-08-17T13:14:08;101256.81;;;33.48;38.54
55077;BME280;40971;44.702;11.030;2023-08-17T13:24:10;101260.19;;;33.72;43.69
55077;BME280;40971;44.702;11.030;2023-08-17T13:34:13;101255.09;;;33.93;41.76
55077;BME280;40971;44.702;11.030;2023-08-17T13:44:14;101246.22;;;33.33;44.39
55077;BME280;40971;44.702;11.030;2023-08-17T13:54:17;101282.72;;;33.64;42.70
55077;BME280;40971;44.702;11.030;2023-08-17T14:04:19;101292.22;;;33.07;43.88
55077;BME280;40971;44.702;11.030;2023-08-17T14:14:23;101306.19;;;32.68;44.69
55077;BME280;40971;44.702;11.030;2023-08-17T14:24:25;101289.97;;;32.58;45.32
55077;BME280;40971;44.702;11.030;2023-08-17T14:34:28;101279.22;;;32.48;45.16
55077;BME280;40971;44.702;11.030;2023-08-17T14:44:30;101282.91;;;32.20;46.19
55077;BME280;40971;44.702;11.030;2023-08-17T14:54:32;101280.38;;;31.81;48.39
55077;BME280;40971;44.702;11.030;2023-08-17T15:04:34;101273.75;;;31.40;50.21
55077;BME280;40971;44.702;11.030;2023-08-17T15:14:40;101257.41;;;31.21;53.21
55077;BME280;40971;44.702;11.030;2023-08-17T15:24:43;101246.34;;;31.12;53.30
55077;BME280;40971;44.702;11.030;2023-08-17T15:34:46;101216.63;;;31.21;52.20
55077;BME280;40971;44.702;11.030;2023-08-17T15:44:50;101174.66;;;31.08;53.41
55077;BME280;40971;44.702;11.030;2023-08-17T15:54:53;101171.72;;;31.29;59.71
55077;BME280;40971;44.702;11.030;2023-08-17T16:04:55;101163.41;;;31.39;56.69
55077;BME280;40971;44.702;11.030;2023-08-17T16:14:57;101173.03;;;31.07;58.27
55077;BME280;40971;44.702;11.030;2023-08-17T16:25:00;101190.81;;;30.95;59.26
55077;BME280;40971;44.702;11.030;2023-08-17T16:35:02;101188.13;;;30.90;59.13
55077;BME280;40971;44.702;11.030;2023-08-17T16:45:04;101188.00;;;31.05;63.69
55077;BME280;40971;44.702;11.030;2023-08-17T16:55:06;101200.25;;;30.69;63.60
55077;BME280;40971;44.702;11.030;2023-08-17T17:05:07;101187.03;;;30.18;70.53
55077;BME280;40971;44.702;11.030;2023-08-17T17:15:12;101188.63;;;29.85;62.05
55077;BME280;40971;44.702;11.030;2023-08-17T17:25:15;101186.75;;;29.71;62.72
55077;BME280;40971;44.702;11.030;2023-08-17T17:35:17;101198.03;;;29.29;65.80
55077;BME280;40971;44.702;11.030;2023-08-17T17:45:18;101201.88;;;28.82;64.04
55077;BME280;40971;44.702;11.030;2023-08-17T17:55:20;101207.00;;;28.54;66.67
55077;BME280;40971;44.702;11.030;2023-08-17T18:05:22;101195.56;;;28.11;67.32
55077;BME280;40971;44.702;11.030;2023-08-17T18:15:23;101212.25;;;27.88;70.50
55077;BME280;40971;44.702;11.030;2023-08-17T18:25:27;101211.03;;;27.49;74.20
55077;BME280;40971;44.702;11.030;2023-08-17T18:35:30;101218.06;;;27.08;75.51
55077;BME280;40971;44.702;11.030;2023-08-17T18:45:31;101237.91;;;26.65;75.68
55077;BME280;40971;44.702;11.030;2023-08-17T18:55:35;101261.78;;;26.25;77.17
55077;BME280;40971;44.702;11.030;2023-08-17T19:05:39;101280.41;;;26.26;77.08
55077;BME280;40971;44.702;11.030;2023-08-17T19:15:42;101280.69;;;25.86;77.10
55077;BME280;40971;44.702;11.030;2023-08-17T19:25:44;101313.88;;;25.70;76.55
55077;BME280;40971;44.702;11.030;2023-08-17T19:35:47;101320.13;;;25.54;77.83
55077;BME280;40971;44.702;11.030;2023-08-17T19:45:48;101319.72;;;25.12;80.14
55077;BME280;40971;44.702;11.030;2023-08-17T19:55:49;101330.13;;;25.42;78.77
55077;BME280;40971;44.702;11.030;2023-08-17T20:05:55;101316.84;;;25.19;78.52
55077;BME280;40971;44.702;11.030;2023-08-17T20:15:58;101295.97;;;24.64;81.07
55077;BME280;40971;44.702;11.030;2023-08-17T20:26:00;101310.59;;;24.57;81.70
55077;BME280;40971;44.702;11.030;2023-08-17T20:36:04;101341.88;;;23.95;84.47
55077;BME280;40971;44.702;11.030;2023-08-17T20:46:09;101345.25;;;24.13;82.25
55077;BME280;40971;44.702;11.030;2023-08-17T20:56:12;101359.13;;;23.87;84.28
55077;BME280;40971;44.702;11.030;2023-08-17T21:06:17;101350.50;;;23.73;83.39
55077;BME280;40971;44.702;11.030;2023-08-17T21:16:21;101371.97;;;23.62;84.95
55077;BME280;40971;44.702;11.030;2023-08-17T21:26:23;101382.19;;;23.30;86.63
55077;BME280;40971;44.702;11.030;2023-08-17T21:36:25;101379.38;;;23.25;87.56
55077;BME280;40971;44.702;11.030;2023-08-17T21:46:28;101394.84;;;23.41;86.74
55077;BME280;40971;44.702;11.030;2023-08-17T21:56:30;101382.81;;;23.02;88.63
55077;BME280;40971;44.702;11.030;2023-08-17T22:06:32;101391.38;;;23.11;88.71
55077;BME280;40971;44.702;11.030;2023-08-17T22:16:34;101361.06;;;22.81;89.33
55077;BME280;40971;44.702;11.030;2023-08-17T22:26:36;101382.59;;;23.04;89.24
55077;BME280;40971;44.702;11.030;2023-08-17T22:36:39;101384.47;;;23.15;87.85
55077;BME280;40971;44.702;11.030;2023-08-17T22:46:41;101380.47;;;22.94;88.32
55077;BME280;40971;44.702;11.030;2023-08-17T22:56:43;101377.22;;;23.04;86.55
55077;BME280;40971;44.702;11.030;2023-08-17T23:06:46;101371.06;;;23.15;84.47
55077;BME280;40971;44.702;11.030;2023-08-17T23:16:48;101383.06;;;23.12;83.73
55077;BME280;40971;44.702;11.030;2023-08-17T23:26:49;101372.50;;;22.88;84.71
55077;BME280;40971;44.702;11.030;2023-08-17T23:36:50;101388.41;;;22.35;85.84
55077;BME280;40971;44.702;11.030;2023-08-17T23:46:51;101385.88;;;22.40;87.01
55077;BME280;40971;44.702;11.030;2023-08-17T23:56:53;101404.88;;;22.38;87.20
